Airport Name : Bratsk

Other Name : Bratsk

ICAO : UIBB

IATA : BTK

FAA :

Latitude : 56.370556

Longitude : 101.698331

Country : Russia

Local Date and Time : 1/23/2018 4:00:00 PM

 

TAF (Terminal Aerodrome Forecast)

TAF UIBB 230500Z 2306/2406 27003MPS 9999 -SN SCT015

 

METAR (METeorological Aerodrome Report)

UIBB 230730Z 23002MPS 9999 NSC M29/M33 Q1033 R30/490237 NOSIG RMK QFE731/0974

UIBB 230700Z VRB01MPS 9999 NSC M29/M33 Q1033 R30/490237 NOSIG RMK QFE731/0974

UIBB 230630Z VRB01MPS 9999 FEW030 M29/M33 Q1033 R30/490237 NOSIG RMK QFE731/0974

UIBB 230600Z VRB01MPS 9999 FEW030 M30/M34 Q1032 R30/490237 NOSIG RMK QFE731/0974

UIBB 230530Z VRB01MPS 9000 -SN SCT040 M30/M34 Q1032 R30/490237 NOSIG RMK QFE730/0974

UIBB 230500Z 29002MPS 230V330 8000 NSC M30/M34 Q1032 R30/490237 NOSIG RMK QFE730/0974

UIBB 230430Z 29002MPS 9000 NSC M32/M35 Q1032 R30/490237 NOSIG RMK QFE730/0974